sensor_id;sensor_type;location;lat;lon;timestamp;temperature;humidity
70456;DHT22;57916;51.996;5.180;2022-12-20T00:01:29;12.40;70.80
70456;DHT22;57916;51.996;5.180;2022-12-20T00:03:58;12.40;70.70
70456;DHT22;57916;51.996;5.180;2022-12-20T00:06:29;12.50;70.80
70456;DHT22;57916;51.996;5.180;2022-12-20T00:09:00;12.50;70.80
70456;DHT22;57916;51.996;5.180;2022-12-20T00:11:27;12.50;70.80
70456;DHT22;57916;51.996;5.180;2022-12-20T00:13:56;12.50;70.80
70456;DHT22;57916;51.996;5.180;2022-12-20T00:16:25;12.50;70.70
70456;DHT22;57916;51.996;5.180;2022-12-20T00:18:57;12.60;70.60
70456;DHT22;57916;51.996;5.180;2022-12-20T00:21:25;12.60;70.60
70456;DHT22;57916;51.996;5.180;2022-12-20T00:23:53;12.70;70.40
70456;DHT22;57916;51.996;5.180;2022-12-20T00:26:23;12.70;70.30
70456;DHT22;57916;51.996;5.180;2022-12-20T00:28:52;12.80;70.20
70456;DHT22;57916;51.996;5.180;2022-12-20T00:31:20;12.80;70.20
70456;DHT22;57916;51.996;5.180;2022-12-20T00:33:50;12.80;70.00
70456;DHT22;57916;51.996;5.180;2022-12-20T00:36:18;12.90;69.90
70456;DHT22;57916;51.996;5.180;2022-12-20T00:38:50;13.00;69.80
70456;DHT22;57916;51.996;5.180;2022-12-20T00:41:22;13.00;69.60
70456;DHT22;57916;51.996;5.180;2022-12-20T00:43:51;13.10;69.60
70456;DHT22;57916;51.996;5.180;2022-12-20T00:46:19;13.10;69.40
70456;DHT22;57916;51.996;5.180;2022-12-20T00:48:46;13.20;69.30
70456;DHT22;57916;51.996;5.180;2022-12-20T00:51:17;13.20;69.20
70456;DHT22;57916;51.996;5.180;2022-12-20T00:53:45;13.30;69.10
70456;DHT22;57916;51.996;5.180;2022-12-20T00:56:12;13.30;69.10
70456;DHT22;57916;51.996;5.180;2022-12-20T00:58:41;13.30;69.00
70456;DHT22;57916;51.996;5.180;2022-12-20T01:03:47;13.30;69.00
70456;DHT22;57916;51.996;5.180;2022-12-20T01:06:14;13.30;69.10
70456;DHT22;57916;51.996;5.180;2022-12-20T01:08:41;13.40;69.20
70456;DHT22;57916;51.996;5.180;2022-12-20T01:11:14;13.40;69.20
70456;DHT22;57916;51.996;5.180;2022-12-20T01:13:44;13.40;69.40
70456;DHT22;57916;51.996;5.180;2022-12-20T01:16:20;13.40;69.50
70456;DHT22;57916;51.996;5.180;2022-12-20T01:18:48;13.40;69.90
70456;DHT22;57916;51.996;5.180;2022-12-20T01:21:16;13.40;70.30
70456;DHT22;57916;51.996;5.180;2022-12-20T01:23:44;13.30;70.70
70456;DHT22;57916;51.996;5.180;2022-12-20T01:26:14;13.30;71.20
70456;DHT22;57916;51.996;5.180;2022-12-20T01:28:43;13.30;71.50
70456;DHT22;57916;51.996;5.180;2022-12-20T01:31:13;13.30;71.90
70456;DHT22;57916;51.996;5.180;2022-12-20T01:33:41;13.20;72.30
70456;DHT22;57916;51.996;5.180;2022-12-20T01:36:12;13.20;72.60
70456;DHT22;57916;51.996;5.180;2022-12-20T01:38:39;13.20;72.90
70456;DHT22;57916;51.996;5.180;2022-12-20T01:41:07;13.10;73.10
70456;DHT22;57916;51.996;5.180;2022-12-20T01:46:46;13.10;73.60
70456;DHT22;57916;51.996;5.180;2022-12-20T01:52:06;13.10;73.80
70456;DHT22;57916;51.996;5.180;2022-12-20T01:54:41;13.00;74.10
70456;DHT22;57916;51.996;5.180;2022-12-20T01:57:14;13.00;74.10
70456;DHT22;57916;51.996;5.180;2022-12-20T01:59:43;13.00;75.10
70456;DHT22;57916;51.996;5.180;2022-12-20T02:02:12;13.00;74.20
70456;DHT22;57916;51.996;5.180;2022-12-20T02:04:39;13.00;74.30
70456;DHT22;57916;51.996;5.180;2022-12-20T02:07:08;13.00;75.30
70456;DHT22;57916;51.996;5.180;2022-12-20T02:09:39;13.00;74.50
70456;DHT22;57916;51.996;5.180;2022-12-20T02:12:19;13.00;74.60
70456;DHT22;57916;51.996;5.180;2022-12-20T02:31:23;13.00;75.20
70456;DHT22;57916;51.996;5.180;2022-12-20T02:33:53;12.90;75.40
70456;DHT22;57916;51.996;5.180;2022-12-20T02:36:24;12.90;75.40
70456;DHT22;57916;51.996;5.180;2022-12-20T02:38:51;12.90;75.50
70456;DHT22;57916;51.996;5.180;2022-12-20T02:41:23;12.90;75.50
70456;DHT22;57916;51.996;5.180;2022-12-20T02:44:13;12.90;75.50
70456;DHT22;57916;51.996;5.180;2022-12-20T02:47:11;12.90;75.50
70456;DHT22;57916;51.996;5.180;2022-12-20T02:49:39;12.90;75.50
70456;DHT22;57916;51.996;5.180;2022-12-20T02:52:12;12.80;75.40
70456;DHT22;57916;51.996;5.180;2022-12-20T02:54:40;12.80;75.40
70456;DHT22;57916;51.996;5.180;2022-12-20T02:57:15;12.80;75.30
70456;DHT22;57916;51.996;5.180;2022-12-20T02:59:56;12.80;75.30
70456;DHT22;57916;51.996;5.180;2022-12-20T03:02:26;12.80;75.30
70456;DHT22;57916;51.996;5.180;2022-12-20T03:04:56;12.70;75.10
70456;DHT22;57916;51.996;5.180;2022-12-20T03:07:23;12.70;75.10
70456;DHT22;57916;51.996;5.180;2022-12-20T03:09:50;12.70;75.10
70456;DHT22;57916;51.996;5.180;2022-12-20T03:12:17;12.70;75.20
70456;DHT22;57916;51.996;5.180;2022-12-20T03:14:44;12.70;75.40
70456;DHT22;57916;51.996;5.180;2022-12-20T03:17:12;12.70;75.40
70456;DHT22;57916;51.996;5.180;2022-12-20T03:19:39;12.70;75.20
70456;DHT22;57916;51.996;5.180;2022-12-20T03:22:06;12.60;75.30
70456;DHT22;57916;51.996;5.180;2022-12-20T03:24:33;12.70;75.40
70456;DHT22;57916;51.996;5.180;2022-12-20T03:27:05;12.70;75.40
70456;DHT22;57916;51.996;5.180;2022-12-20T03:29:32;12.60;75.40
70456;DHT22;57916;51.996;5.180;2022-12-20T03:31:59;12.60;75.40
70456;DHT22;57916;51.996;5.180;2022-12-20T03:34:26;12.70;75.30
70456;DHT22;57916;51.996;5.180;2022-12-20T03:36:53;12.70;75.20
70456;DHT22;57916;51.996;5.180;2022-12-20T03:39:20;12.70;75.30
70456;DHT22;57916;51.996;5.180;2022-12-20T03:41:49;12.70;75.40
70456;DHT22;57916;51.996;5.180;2022-12-20T03:44:17;12.80;75.30
70456;DHT22;57916;51.996;5.180;2022-12-20T03:46:44;12.80;75.20
70456;DHT22;57916;51.996;5.180;2022-12-20T03:49:11;12.90;76.00
70456;DHT22;57916;51.996;5.180;2022-12-20T03:51:44;13.00;74.90
70456;DHT22;57916;51.996;5.180;2022-12-20T03:54:11;13.00;74.80
70456;DHT22;57916;51.996;5.180;2022-12-20T03:57:03;13.00;74.70
70456;DHT22;57916;51.996;5.180;2022-12-20T03:59:33;13.10;74.60
70456;DHT22;57916;51.996;5.180;2022-12-20T04:02:02;13.10;74.60
70456;DHT22;57916;51.996;5.180;2022-12-20T04:04:30;13.20;74.40
70456;DHT22;57916;51.996;5.180;2022-12-20T04:06:57;13.20;74.30
70456;DHT22;57916;51.996;5.180;2022-12-20T04:09:25;13.20;74.10
70456;DHT22;57916;51.996;5.180;2022-12-20T04:11:57;13.30;74.10
70456;DHT22;57916;51.996;5.180;2022-12-20T04:14:26;13.30;74.00
70456;DHT22;57916;51.996;5.180;2022-12-20T04:16:52;13.30;73.80
70456;DHT22;57916;51.996;5.180;2022-12-20T04:19:21;13.40;73.80
70456;DHT22;57916;51.996;5.180;2022-12-20T04:21:48;13.40;73.80
70456;DHT22;57916;51.996;5.180;2022-12-20T04:24:17;13.40;73.70
70456;DHT22;57916;51.996;5.180;2022-12-20T04:26:52;13.50;73.70
70456;DHT22;57916;51.996;5.180;2022-12-20T04:29:19;13.50;73.70
70456;DHT22;57916;51.996;5.180;2022-12-20T04:31:47;13.50;73.60
70456;DHT22;57916;51.996;5.180;2022-12-20T04:34:14;13.50;73.50
70456;DHT22;57916;51.996;5.180;2022-12-20T04:36:41;13.50;73.50
70456;DHT22;57916;51.996;5.180;2022-12-20T04:39:14;13.50;73.50
70456;DHT22;57916;51.996;5.180;2022-12-20T04:42:01;13.60;73.70
70456;DHT22;57916;51.996;5.180;2022-12-20T04:44:28;13.50;74.00
70456;DHT22;57916;51.996;5.180;2022-12-20T04:46:55;13.60;74.50
70456;DHT22;57916;51.996;5.180;2022-12-20T04:49:22;13.50;74.90
70456;DHT22;57916;51.996;5.180;2022-12-20T04:51:50;13.50;75.30
70456;DHT22;57916;51.996;5.180;2022-12-20T04:54:17;13.50;75.60
70456;DHT22;57916;51.996;5.180;2022-12-20T04:56:54;13.40;75.80
70456;DHT22;57916;51.996;5.180;2022-12-20T04:59:22;13.40;76.80
70456;DHT22;57916;51.996;5.180;2022-12-20T05:01:52;13.40;76.00
70456;DHT22;57916;51.996;5.180;2022-12-20T05:04:38;13.40;76.10
70456;DHT22;57916;51.996;5.180;2022-12-20T05:07:05;13.50;77.00
70456;DHT22;57916;51.996;5.180;2022-12-20T05:09:33;13.40;76.10
70456;DHT22;57916;51.996;5.180;2022-12-20T05:12:00;13.40;76.20
70456;DHT22;57916;51.996;5.180;2022-12-20T05:14:27;13.40;76.40
70456;DHT22;57916;51.996;5.180;2022-12-20T05:16:55;13.40;76.50
70456;DHT22;57916;51.996;5.180;2022-12-20T05:19:22;13.50;76.60
70456;DHT22;57916;51.996;5.180;2022-12-20T05:21:49;13.50;77.40
70456;DHT22;57916;51.996;5.180;2022-12-20T05:24:38;13.40;76.40
70456;DHT22;57916;51.996;5.180;2022-12-20T05:27:30;13.50;76.40
70456;DHT22;57916;51.996;5.180;2022-12-20T05:29:57;13.50;76.40
70456;DHT22;57916;51.996;5.180;2022-12-20T05:32:26;13.40;76.40
70456;DHT22;57916;51.996;5.180;2022-12-20T05:34:54;13.50;76.50
70456;DHT22;57916;51.996;5.180;2022-12-20T05:37:21;13.50;76.50
70456;DHT22;57916;51.996;5.180;2022-12-20T05:39:48;13.50;76.50
70456;DHT22;57916;51.996;5.180;2022-12-20T05:42:19;13.50;76.40
70456;DHT22;57916;51.996;5.180;2022-12-20T05:44:50;13.50;76.40
70456;DHT22;57916;51.996;5.180;2022-12-20T05:47:19;13.50;76.40
70456;DHT22;57916;51.996;5.180;2022-12-20T05:49:48;13.60;76.40
70456;DHT22;57916;51.996;5.180;2022-12-20T05:52:15;13.50;76.40
70456;DHT22;57916;51.996;5.180;2022-12-20T05:54:42;13.50;76.50
70456;DHT22;57916;51.996;5.180;2022-12-20T05:57:17;13.50;76.50
70456;DHT22;57916;51.996;5.180;2022-12-20T05:59:45;13.50;76.40
70456;DHT22;57916;51.996;5.180;2022-12-20T06:02:15;13.50;76.30
70456;DHT22;57916;51.996;5.180;2022-12-20T06:04:44;13.50;76.10
70456;DHT22;57916;51.996;5.180;2022-12-20T06:07:22;13.50;76.00
70456;DHT22;57916;51.996;5.180;2022-12-20T06:09:55;13.50;75.80
70456;DHT22;57916;51.996;5.180;2022-12-20T06:12:26;13.60;75.60
70456;DHT22;57916;51.996;5.180;2022-12-20T06:14:53;13.50;75.40
70456;DHT22;57916;51.996;5.180;2022-12-20T06:17:20;13.60;75.30
70456;DHT22;57916;51.996;5.180;2022-12-20T06:19:49;13.60;75.10
70456;DHT22;57916;51.996;5.180;2022-12-20T06:22:16;13.60;74.90
70456;DHT22;57916;51.996;5.180;2022-12-20T06:24:47;13.60;74.70
70456;DHT22;57916;51.996;5.180;2022-12-20T06:27:18;13.60;74.50
70456;DHT22;57916;51.996;5.180;2022-12-20T06:29:55;13.70;74.40
70456;DHT22;57916;51.996;5.180;2022-12-20T06:32:25;13.70;74.10
70456;DHT22;57916;51.996;5.180;2022-12-20T06:34:53;13.70;74.00
70456;DHT22;57916;51.996;5.180;2022-12-20T06:37:20;13.70;73.90
70456;DHT22;57916;51.996;5.180;2022-12-20T06:39:47;13.60;73.70
70456;DHT22;57916;51.996;5.180;2022-12-20T06:42:14;13.60;73.60
70456;DHT22;57916;51.996;5.180;2022-12-20T06:44:43;13.70;73.50
70456;DHT22;57916;51.996;5.180;2022-12-20T06:47:11;13.70;73.50
70456;DHT22;57916;51.996;5.180;2022-12-20T06:49:38;13.60;73.40
70456;DHT22;57916;51.996;5.180;2022-12-20T06:52:12;13.70;73.50
70456;DHT22;57916;51.996;5.180;2022-12-20T06:54:48;13.70;73.30
70456;DHT22;57916;51.996;5.180;2022-12-20T06:57:15;13.60;73.30
70456;DHT22;57916;51.996;5.180;2022-12-20T06:59:45;13.70;73.30
70456;DHT22;57916;51.996;5.180;2022-12-20T07:02:12;13.60;73.30
70456;DHT22;57916;51.996;5.180;2022-12-20T07:04:40;13.70;73.20
70456;DHT22;57916;51.996;5.180;2022-12-20T07:07:07;13.70;73.10
70456;DHT22;57916;51.996;5.180;2022-12-20T07:09:34;13.80;73.00
70456;DHT22;57916;51.996;5.180;2022-12-20T07:12:00;13.80;73.70
70456;DHT22;57916;51.996;5.180;2022-12-20T07:14:27;13.80;72.90
70456;DHT22;57916;51.996;5.180;2022-12-20T07:16:54;13.80;72.70
70456;DHT22;57916;51.996;5.180;2022-12-20T07:19:23;13.80;72.60
70456;DHT22;57916;51.996;5.180;2022-12-20T07:21:51;13.90;72.50
70456;DHT22;57916;51.996;5.180;2022-12-20T07:24:18;13.80;72.50
70456;DHT22;57916;51.996;5.180;2022-12-20T07:26:45;13.80;72.40
70456;DHT22;57916;51.996;5.180;2022-12-20T07:29:12;13.80;72.30
70456;DHT22;57916;51.996;5.180;2022-12-20T07:31:41;13.80;72.20
70456;DHT22;57916;51.996;5.180;2022-12-20T07:34:10;13.80;72.20
70456;DHT22;57916;51.996;5.180;2022-12-20T07:36:37;13.80;72.10
70456;DHT22;57916;51.996;5.180;2022-12-20T07:39:04;13.90;72.10
70456;DHT22;57916;51.996;5.180;2022-12-20T07:41:31;13.90;72.10
70456;DHT22;57916;51.996;5.180;2022-12-20T07:43:58;13.90;72.10
70456;DHT22;57916;51.996;5.180;2022-12-20T07:46:26;13.90;72.10
70456;DHT22;57916;51.996;5.180;2022-12-20T07:48:54;13.90;72.10
70456;DHT22;57916;51.996;5.180;2022-12-20T07:51:26;13.90;72.00
70456;DHT22;57916;51.996;5.180;2022-12-20T07:54:08;13.90;72.10
70456;DHT22;57916;51.996;5.180;2022-12-20T07:56:40;13.90;72.20
70456;DHT22;57916;51.996;5.180;2022-12-20T07:59:10;13.90;72.20
70456;DHT22;57916;51.996;5.180;2022-12-20T08:01:38;13.90;72.20
70456;DHT22;57916;51.996;5.180;2022-12-20T08:04:12;13.90;72.20
70456;DHT22;57916;51.996;5.180;2022-12-20T08:06:41;13.80;72.20
70456;DHT22;57916;51.996;5.180;2022-12-20T08:09:10;13.80;72.10
70456;DHT22;57916;51.996;5.180;2022-12-20T08:11:43;13.80;72.20
70456;DHT22;57916;51.996;5.180;2022-12-20T08:14:10;13.80;72.10
70456;DHT22;57916;51.996;5.180;2022-12-20T08:16:37;13.80;72.10
70456;DHT22;57916;51.996;5.180;2022-12-20T08:19:04;13.80;72.20
70456;DHT22;57916;51.996;5.180;2022-12-20T08:21:31;13.80;72.20
70456;DHT22;57916;51.996;5.180;2022-12-20T08:23:58;13.80;72.30
70456;DHT22;57916;51.996;5.180;2022-12-20T08:26:25;13.80;72.30
70456;DHT22;57916;51.996;5.180;2022-12-20T08:28:54;13.80;72.30
70456;DHT22;57916;51.996;5.180;2022-12-20T08:31:21;13.80;72.20
70456;DHT22;57916;51.996;5.180;2022-12-20T08:33:49;13.80;72.10
70456;DHT22;57916;51.996;5.180;2022-12-20T08:36:15;13.80;72.00
70456;DHT22;57916;51.996;5.180;2022-12-20T08:38:42;13.80;71.90
70456;DHT22;57916;51.996;5.180;2022-12-20T08:41:12;13.90;71.70
70456;DHT22;57916;51.996;5.180;2022-12-20T08:43:41;13.90;71.70
70456;DHT22;57916;51.996;5.180;2022-12-20T08:46:09;13.90;71.70
70456;DHT22;57916;51.996;5.180;2022-12-20T08:48:38;13.90;71.80
70456;DHT22;57916;51.996;5.180;2022-12-20T08:51:07;13.90;72.10
70456;DHT22;57916;51.996;5.180;2022-12-20T08:53:35;13.90;72.30
70456;DHT22;57916;51.996;5.180;2022-12-20T08:56:11;13.90;72.50
70456;DHT22;57916;51.996;5.180;2022-12-20T08:58:39;13.80;72.80
70456;DHT22;57916;51.996;5.180;2022-12-20T09:01:09;13.80;73.00
70456;DHT22;57916;51.996;5.180;2022-12-20T09:03:37;13.80;73.30
70456;DHT22;57916;51.996;5.180;2022-12-20T09:06:10;13.80;73.60
70456;DHT22;57916;51.996;5.180;2022-12-20T09:08:38;13.80;73.70
70456;DHT22;57916;51.996;5.180;2022-12-20T09:11:08;13.80;73.90
70456;DHT22;57916;51.996;5.180;2022-12-20T09:13:35;13.70;73.90
70456;DHT22;57916;51.996;5.180;2022-12-20T09:16:12;13.70;74.20
70456;DHT22;57916;51.996;5.180;2022-12-20T09:18:39;13.70;74.50
70456;DHT22;57916;51.996;5.180;2022-12-20T09:21:07;13.70;74.80
70456;DHT22;57916;51.996;5.180;2022-12-20T09:23:36;13.60;75.00
70456;DHT22;57916;51.996;5.180;2022-12-20T09:26:05;13.60;75.30
70456;DHT22;57916;51.996;5.180;2022-12-20T09:28:33;13.60;75.60
70456;DHT22;57916;51.996;5.180;2022-12-20T09:31:00;13.50;75.80
70456;DHT22;57916;51.996;5.180;2022-12-20T09:33:28;13.50;76.00
70456;DHT22;57916;51.996;5.180;2022-12-20T09:35:57;13.50;76.10
70456;DHT22;57916;51.996;5.180;2022-12-20T09:38:24;13.60;76.30
70456;DHT22;57916;51.996;5.180;2022-12-20T09:40:55;13.50;76.40
70456;DHT22;57916;51.996;5.180;2022-12-20T09:43:23;13.50;76.50
70456;DHT22;57916;51.996;5.180;2022-12-20T09:45:54;13.50;76.60
70456;DHT22;57916;51.996;5.180;2022-12-20T09:48:25;13.50;76.90
70456;DHT22;57916;51.996;5.180;2022-12-20T09:56:32;13.60;77.20
70456;DHT22;57916;51.996;5.180;2022-12-20T09:59:12;13.60;77.10
70456;DHT22;57916;51.996;5.180;2022-12-20T10:01:45;13.50;77.20
70456;DHT22;57916;51.996;5.180;2022-12-20T10:04:33;13.60;77.30
70456;DHT22;57916;51.996;5.180;2022-12-20T10:10:09;13.60;77.20
70456;DHT22;57916;51.996;5.180;2022-12-20T10:18:56;13.60;77.30
70456;DHT22;57916;51.996;5.180;2022-12-20T10:24:11;13.60;77.50
70456;DHT22;57916;51.996;5.180;2022-12-20T10:26:40;13.60;77.60
70456;DHT22;57916;51.996;5.180;2022-12-20T10:29:08;13.60;77.70
70456;DHT22;57916;51.996;5.180;2022-12-20T10:31:35;13.60;77.80
70456;DHT22;57916;51.996;5.180;2022-12-20T10:34:02;13.60;77.80
70456;DHT22;57916;51.996;5.180;2022-12-20T10:36:38;13.60;77.80
70456;DHT22;57916;51.996;5.180;2022-12-20T10:39:07;13.60;77.80
70456;DHT22;57916;51.996;5.180;2022-12-20T10:46:48;13.60;77.80
70456;DHT22;57916;51.996;5.180;2022-12-20T10:49:30;13.60;77.80
70456;DHT22;57916;51.996;5.180;2022-12-20T10:57:25;13.60;77.90
70456;DHT22;57916;51.996;5.180;2022-12-20T10:59:58;13.70;78.00
70456;DHT22;57916;51.996;5.180;2022-12-20T11:02:38;13.70;78.00
70456;DHT22;57916;51.996;5.180;2022-12-20T11:07:54;13.60;78.00
70456;DHT22;57916;51.996;5.180;2022-12-20T11:10:43;13.60;78.00
70456;DHT22;57916;51.996;5.180;2022-12-20T11:13:20;13.70;78.00
70456;DHT22;57916;51.996;5.180;2022-12-20T11:15:49;13.70;78.10
70456;DHT22;57916;51.996;5.180;2022-12-20T11:18:35;13.70;78.10
70456;DHT22;57916;51.996;5.180;2022-12-20T11:21:15;13.70;78.20
70456;DHT22;57916;51.996;5.180;2022-12-20T11:35:17;13.80;78.00
70456;DHT22;57916;51.996;5.180;2022-12-20T11:38:23;13.80;78.00
70456;DHT22;57916;51.996;5.180;2022-12-20T11:55:43;13.80;78.20
70456;DHT22;57916;51.996;5.180;2022-12-20T11:58:19;13.80;78.30
70456;DHT22;57916;51.996;5.180;2022-12-20T12:01:09;13.80;78.30
70456;DHT22;57916;51.996;5.180;2022-12-20T12:03:42;13.80;78.20
70456;DHT22;57916;51.996;5.180;2022-12-20T12:06:31;13.90;78.30
70456;DHT22;57916;51.996;5.180;2022-12-20T12:09:05;13.90;78.30
70456;DHT22;57916;51.996;5.180;2022-12-20T12:11:41;13.80;78.40
70456;DHT22;57916;51.996;5.180;2022-12-20T12:14:48;13.90;78.60
70456;DHT22;57916;51.996;5.180;2022-12-20T12:17:41;13.90;78.50
70456;DHT22;57916;51.996;5.180;2022-12-20T12:23:03;13.90;78.60
70456;DHT22;57916;51.996;5.180;2022-12-20T12:25:31;13.90;78.60
70456;DHT22;57916;51.996;5.180;2022-12-20T12:27:58;13.90;78.60
70456;DHT22;57916;51.996;5.180;2022-12-20T12:30:27;14.00;78.50
70456;DHT22;57916;51.996;5.180;2022-12-20T12:33:05;14.00;78.50
70456;DHT22;57916;51.996;5.180;2022-12-20T12:35:40;14.00;78.40
70456;DHT22;57916;51.996;5.180;2022-12-20T12:46:32;14.00;78.30
70456;DHT22;57916;51.996;5.180;2022-12-20T12:49:20;14.10;78.20
70456;DHT22;57916;51.996;5.180;2022-12-20T12:51:54;14.10;78.20
70456;DHT22;57916;51.996;5.180;2022-12-20T12:54:25;14.00;78.20
70456;DHT22;57916;51.996;5.180;2022-12-20T12:57:15;14.10;78.20
70456;DHT22;57916;51.996;5.180;2022-12-20T12:59:53;14.00;78.20
70456;DHT22;57916;51.996;5.180;2022-12-20T13:02:26;14.00;78.20
70456;DHT22;57916;51.996;5.180;2022-12-20T13:10:01;14.00;78.30
70456;DHT22;57916;51.996;5.180;2022-12-20T13:20:34;14.00;78.60
70456;DHT22;57916;51.996;5.180;2022-12-20T13:23:22;14.00;78.60
70456;DHT22;57916;51.996;5.180;2022-12-20T13:25:50;14.00;78.60
70456;DHT22;57916;51.996;5.180;2022-12-20T13:38:48;14.00;78.60
70456;DHT22;57916;51.996;5.180;2022-12-20T13:47:05;14.00;78.80
70456;DHT22;57916;51.996;5.180;2022-12-20T13:49:39;14.00;78.80
70456;DHT22;57916;51.996;5.180;2022-12-20T13:52:33;14.00;78.90
70456;DHT22;57916;51.996;5.180;2022-12-20T13:55:19;14.00;78.90
70456;DHT22;57916;51.996;5.180;2022-12-20T13:57:48;14.00;78.80
70456;DHT22;57916;51.996;5.180;2022-12-20T14:00:24;14.00;78.90
70456;DHT22;57916;51.996;5.180;2022-12-20T14:02:52;14.00;78.70
70456;DHT22;57916;51.996;5.180;2022-12-20T14:05:25;14.10;78.70
70456;DHT22;57916;51.996;5.180;2022-12-20T14:08:01;14.10;78.50
70456;DHT22;57916;51.996;5.180;2022-12-20T14:10:30;14.10;78.40
70456;DHT22;57916;51.996;5.180;2022-12-20T14:12:58;14.10;78.60
70456;DHT22;57916;51.996;5.180;2022-12-20T14:15:34;14.10;78.40
70456;DHT22;57916;51.996;5.180;2022-12-20T14:18:20;14.10;78.40
70456;DHT22;57916;51.996;5.180;2022-12-20T14:20:51;14.10;78.50
70456;DHT22;57916;51.996;5.180;2022-12-20T14:23:22;14.10;78.60
70456;DHT22;57916;51.996;5.180;2022-12-20T14:25:52;14.10;78.50
70456;DHT22;57916;51.996;5.180;2022-12-20T14:28:36;14.10;78.50
70456;DHT22;57916;51.996;5.180;2022-12-20T14:31:06;14.00;78.50
70456;DHT22;57916;51.996;5.180;2022-12-20T14:33:38;14.10;78.50
70456;DHT22;57916;51.996;5.180;2022-12-20T14:38:47;14.00;78.40
70456;DHT22;57916;51.996;5.180;2022-12-20T14:41:34;14.00;78.30
70456;DHT22;57916;51.996;5.180;2022-12-20T14:46:30;14.10;78.30
70456;DHT22;57916;51.996;5.180;2022-12-20T14:49:21;14.10;78.20
70456;DHT22;57916;51.996;5.180;2022-12-20T14:51:50;14.10;78.10
70456;DHT22;57916;51.996;5.180;2022-12-20T14:54:24;14.10;78.00
70456;DHT22;57916;51.996;5.180;2022-12-20T14:57:24;14.10;78.00
70456;DHT22;57916;51.996;5.180;2022-12-20T15:02:56;14.10;77.80
70456;DHT22;57916;51.996;5.180;2022-12-20T15:08:18;14.10;77.60
70456;DHT22;57916;51.996;5.180;2022-12-20T15:13:39;14.00;77.70
70456;DHT22;57916;51.996;5.180;2022-12-20T15:16:19;14.00;77.90
70456;DHT22;57916;51.996;5.180;2022-12-20T15:18:47;14.00;78.00
70456;DHT22;57916;51.996;5.180;2022-12-20T15:23:55;14.00;77.90
70456;DHT22;57916;51.996;5.180;2022-12-20T15:26:24;13.90;78.00
70456;DHT22;57916;51.996;5.180;2022-12-20T15:28:51;13.90;78.00
70456;DHT22;57916;51.996;5.180;2022-12-20T15:31:20;13.90;78.10
70456;DHT22;57916;51.996;5.180;2022-12-20T15:33:55;13.90;78.10
70456;DHT22;57916;51.996;5.180;2022-12-20T15:36:26;13.90;78.00
70456;DHT22;57916;51.996;5.180;2022-12-20T15:38:55;13.90;78.00
70456;DHT22;57916;51.996;5.180;2022-12-20T15:41:41;13.90;77.80
70456;DHT22;57916;51.996;5.180;2022-12-20T15:44:16;14.00;77.70
70456;DHT22;57916;51.996;5.180;2022-12-20T15:46:43;14.00;77.70
70456;DHT22;57916;51.996;5.180;2022-12-20T15:49:14;14.00;77.70
70456;DHT22;57916;51.996;5.180;2022-12-20T15:51:43;14.00;77.70
70456;DHT22;57916;51.996;5.180;2022-12-20T15:54:34;13.90;77.70
70456;DHT22;57916;51.996;5.180;2022-12-20T15:57:04;13.90;77.80
70456;DHT22;57916;51.996;5.180;2022-12-20T15:59:34;13.90;77.80
70456;DHT22;57916;51.996;5.180;2022-12-20T16:02:27;13.90;77.80
70456;DHT22;57916;51.996;5.180;2022-12-20T16:04:54;14.00;77.70
70456;DHT22;57916;51.996;5.180;2022-12-20T16:07:22;14.00;77.50
70456;DHT22;57916;51.996;5.180;2022-12-20T16:09:49;14.00;77.40
70456;DHT22;57916;51.996;5.180;2022-12-20T16:12:25;14.00;77.30
70456;DHT22;57916;51.996;5.180;2022-12-20T16:14:52;14.00;77.30
70456;DHT22;57916;51.996;5.180;2022-12-20T16:17:20;14.00;77.30
70456;DHT22;57916;51.996;5.180;2022-12-20T16:19:47;14.00;77.30
70456;DHT22;57916;51.996;5.180;2022-12-20T16:22:22;14.00;77.30
70456;DHT22;57916;51.996;5.180;2022-12-20T16:24:49;14.00;77.40
70456;DHT22;57916;51.996;5.180;2022-12-20T16:27:17;13.90;77.50
70456;DHT22;57916;51.996;5.180;2022-12-20T16:29:44;13.90;77.50
70456;DHT22;57916;51.996;5.180;2022-12-20T16:32:16;13.90;77.50
70456;DHT22;57916;51.996;5.180;2022-12-20T16:34:44;13.90;77.60
70456;DHT22;57916;51.996;5.180;2022-12-20T16:37:11;13.90;77.70
70456;DHT22;57916;51.996;5.180;2022-12-20T16:39:39;13.90;77.70
70456;DHT22;57916;51.996;5.180;2022-12-20T16:42:17;13.90;77.70
70456;DHT22;57916;51.996;5.180;2022-12-20T16:44:44;13.90;77.80
70456;DHT22;57916;51.996;5.180;2022-12-20T16:47:12;13.90;77.90
70456;DHT22;57916;51.996;5.180;2022-12-20T16:49:40;13.80;77.90
70456;DHT22;57916;51.996;5.180;2022-12-20T16:52:18;13.80;78.00
70456;DHT22;57916;51.996;5.180;2022-12-20T16:54:45;13.80;78.00
70456;DHT22;57916;51.996;5.180;2022-12-20T16:57:12;13.80;77.90
70456;DHT22;57916;51.996;5.180;2022-12-20T16:59:39;13.80;77.80
70456;DHT22;57916;51.996;5.180;2022-12-20T17:04:53;13.80;77.70
70456;DHT22;57916;51.996;5.180;2022-12-20T17:07:20;13.80;77.70
70456;DHT22;57916;51.996;5.180;2022-12-20T17:09:47;13.80;77.60
70456;DHT22;57916;51.996;5.180;2022-12-20T17:12:18;13.80;78.60
70456;DHT22;57916;51.996;5.180;2022-12-20T17:14:47;13.80;77.60
70456;DHT22;57916;51.996;5.180;2022-12-20T17:17:15;13.90;77.50
70456;DHT22;57916;51.996;5.180;2022-12-20T17:19:43;13.90;77.40
70456;DHT22;57916;51.996;5.180;2022-12-20T17:22:11;13.90;77.40
70456;DHT22;57916;51.996;5.180;2022-12-20T17:24:51;13.90;77.20
70456;DHT22;57916;51.996;5.180;2022-12-20T17:27:17;13.90;77.20
70456;DHT22;57916;51.996;5.180;2022-12-20T17:29:47;14.00;77.30
70456;DHT22;57916;51.996;5.180;2022-12-20T17:32:22;14.00;77.20
70456;DHT22;57916;51.996;5.180;2022-12-20T17:34:50;14.00;77.10
70456;DHT22;57916;51.996;5.180;2022-12-20T17:37:16;14.00;77.00
70456;DHT22;57916;51.996;5.180;2022-12-20T17:39:44;14.00;76.90
70456;DHT22;57916;51.996;5.180;2022-12-20T17:42:14;14.00;76.90
70456;DHT22;57916;51.996;5.180;2022-12-20T17:44:41;14.00;76.70
70456;DHT22;57916;51.996;5.180;2022-12-20T17:47:08;14.00;76.70
70456;DHT22;57916;51.996;5.180;2022-12-20T17:49:37;14.00;76.80
70456;DHT22;57916;51.996;5.180;2022-12-20T17:52:04;14.00;76.80
70456;DHT22;57916;51.996;5.180;2022-12-20T17:54:31;13.90;76.80
70456;DHT22;57916;51.996;5.180;2022-12-20T17:57:11;14.00;76.80
70456;DHT22;57916;51.996;5.180;2022-12-20T17:59:38;14.00;76.80
70456;DHT22;57916;51.996;5.180;2022-12-20T18:02:23;14.00;76.90
70456;DHT22;57916;51.996;5.180;2022-12-20T18:04:51;13.90;76.80
70456;DHT22;57916;51.996;5.180;2022-12-20T18:07:18;13.90;76.80
70456;DHT22;57916;51.996;5.180;2022-12-20T18:09:46;13.90;76.90
70456;DHT22;57916;51.996;5.180;2022-12-20T18:12:13;13.90;76.90
70456;DHT22;57916;51.996;5.180;2022-12-20T18:14:41;13.90;76.90
70456;DHT22;57916;51.996;5.180;2022-12-20T18:17:08;13.90;76.90